Fall River, Kansas
Current Conditions -  °F | °C
As of 6:52 PM on Saturday 25 Oct 2014 (Local Time) from KCNU Reporting Station
Clear Clear  
Wind Chill: 70°   Ceiling: Unl
Heat Index: 70°   Visibility: 10mi
Dew Point: 64°   Wind: 3mph
Humidity: 81%   Direction: 150°SSE
Pressure: 30"   Gusts: NA
Location:  37.61°N, 96.03°W
Report Text: KCNU 252352Z AUTO 15003KT 10SM CLR 21/18 A3000 RMK AO2 SLP154 T02110178 10294 20211 58005
Loading
Personal Weather Stations






























Interactive Weather Map
Tropical Storm Tracking
New forecast layout! Learn more

10-Day Weather Forecast

Advertisements
Track Severe Weather on mobile